Main page
METAR-TAF:

METAR-TAF

Airports :

Pau, France

Pau Pyrénées Airport

latitude: 43-23N, longitude: 000-25W, elevation: 188 m

Current weather observation

The report was made 20 minutes ago, at 11:30 UTC
Wind 1 kt from variable directions
Temperature 14°C
Humidity 55%
Pressure 1023 hPa
Visibility 10 km or more
no clouds below 1500 m and no cumulonimbus

METAR: LFBP 201130Z AUTO VRB01KT CAVOK 14/05 Q1023 NOSIG

Time: 12:50 (11:50 UTC)

Forecast

The report was made 50 minutes ago, at 11:00 UTC
Forecast valid from 20 at 12 UTC to 21 at 12 UTC
Wind 3 kt from variable directions
Visibility 10 km or more
no clouds below 1500 m and no cumulonimbus
Temporary
from 20 at 12 UTC to 20 at 18 UTC
Wind 7 kt from the East
Probability 30% :
Temporary
from 21 at 03 UTC to 21 at 07 UTC
Visibility: 3000 m
mist

TAF: LFBP 201100Z 2012/2112 VRB03KT CAVOK TEMPO 2012/2018 10007KT PROB30 TEMPO 2103/2107 3000 BR

Weather observations and forecasts of more than 4000 airports (METAR and TAF reports).

The available stations are represented by yellow and red dots on the map.

Hover mouse over dot to see the name of the station.

Then click to see weather observations and forecasts.

To change the map : click on the green buttons with a black cross to zoom in, on the green button with a dash to zoom out, or on the green arrows for adjacent maps.


METAR-TAF: